Time;durP1;ratioP1;P1;durP2;ratioP2;P2;SDS_P1;SDS_P2;PMS_P1;PMS_P2;Temp;Humidity;BMP_temperature;BMP_pressure;BME280_temperature;BME280_humidity;BME280_pressure;Samples;Min_cycle;Max_cycle;Signal;HPM_P1;HPM_P2
2022/07/23 00:00:31;;;;;;;6.15;1.70;;;;;;;14.08;86.19;100717.81;4890844;29;20387;-72
2022/07/23 00:02:56;;;;;;;6.25;2.25;;;;;;;14.00;86.47;100716.44;4877487;29;20025;-73
2022/07/23 00:05:22;;;;;;;4.40;1.88;;;;;;;13.91;87.34;100712.66;4855323;29;20397;-73
2022/07/23 00:07:47;;;;;;;7.70;2.25;;;;;;;13.83;87.50;100710.47;4863812;29;20903;-73
2022/07/23 00:10:13;;;;;;;7.63;2.15;;;;;;;13.77;87.81;100710.50;4876670;29;20039;-73
2022/07/23 00:12:39;;;;;;;4.00;1.92;;;;;;;13.68;88.09;100709.44;4888192;29;20028;-72
2022/07/23 00:15:05;;;;;;;6.97;2.53;;;;;;;13.63;88.53;100701.22;4891387;29;20036;-74
2022/07/23 00:17:32;;;;;;;6.60;2.20;;;;;;;13.59;88.17;100702.88;4896456;29;20088;-73
2022/07/23 00:19:57;;;;;;;8.00;2.45;;;;;;;13.54;88.96;100702.88;4856013;29;20024;-73
2022/07/23 00:22:23;;;;;;;7.75;2.30;;;;;;;13.50;88.27;100707.28;4888149;29;20029;-71
2022/07/23 00:24:48;;;;;;;5.32;2.10;;;;;;;13.43;88.99;100705.66;4888297;29;20033;-71
2022/07/23 00:27:14;;;;;;;7.13;1.90;;;;;;;13.42;89.02;100701.25;4858307;29;20108;-71
2022/07/23 00:29:39;;;;;;;7.75;2.53;;;;;;;13.42;88.91;100701.25;4882176;29;20029;-72
2022/07/23 00:32:05;;;;;;;5.25;2.10;;;;;;;13.36;89.43;100705.13;4892484;29;20481;-72
2022/07/23 00:34:30;;;;;;;10.77;2.40;;;;;;;13.32;89.41;100705.94;4882896;29;20031;-71
2022/07/23 00:36:56;;;;;;;8.63;2.33;;;;;;;13.27;89.88;100707.59;4858796;29;20441;-72
2022/07/23 00:39:22;;;;;;;6.35;2.42;;;;;;;13.23;89.89;100713.91;4852213;29;20039;-74
2022/07/23 00:41:48;;;;;;;7.47;2.05;;;;;;;13.20;90.53;100714.44;4892072;29;20031;-72
2022/07/23 00:44:20;;;;;;;5.75;1.92;;;;;;;13.22;90.25;100712.25;4885091;29;20033;-71
2022/07/23 00:46:48;;;;;;;6.85;2.10;;;;;;;13.24;90.08;100718.28;4866564;29;20033;-73
2022/07/23 00:49:14;;;;;;;10.55;2.20;;;;;;;13.24;89.35;100716.38;4876497;29;20063;-72
2022/07/23 00:51:41;;;;;;;7.18;2.85;;;;;;;13.23;89.27;100713.91;4884032;29;20043;-72
2022/07/23 00:54:06;;;;;;;6.60;2.05;;;;;;;13.19;89.18;100710.06;4901779;29;20060;-71
2022/07/23 00:56:32;;;;;;;6.85;1.90;;;;;;;13.20;88.87;100706.19;4895305;29;20415;-71
2022/07/23 00:59:00;;;;;;;7.30;2.33;;;;;;;13.22;89.50;100718.56;4908846;29;20037;-71
2022/07/23 01:01:26;;;;;;;6.72;2.25;;;;;;;13.20;88.87;100711.69;4911079;29;20024;-72
2022/07/23 01:03:52;;;;;;;8.68;2.20;;;;;;;13.15;89.52;100706.22;4878399;29;20068;-72
2022/07/23 01:06:17;;;;;;;5.22;2.40;;;;;;;13.12;89.84;100701.28;4879851;29;20047;-73
2022/07/23 01:08:42;;;;;;;4.40;2.25;;;;;;;13.07;89.24;100702.13;4910036;29;20039;-72
2022/07/23 01:11:08;;;;;;;6.57;2.22;;;;;;;13.03;89.61;100698.28;4900043;29;20028;-74
2022/07/23 01:13:34;;;;;;;6.68;2.40;;;;;;;12.99;89.81;100692.50;4900251;29;20113;-73
2022/07/23 01:15:59;;;;;;;8.15;2.50;;;;;;;12.90;89.81;100684.00;4896311;29;20044;-73
2022/07/23 01:18:25;;;;;;;5.38;2.67;;;;;;;12.89;90.52;100695.25;4873319;29;20043;-71
2022/07/23 01:20:50;;;;;;;6.93;2.45;;;;;;;12.84;90.93;100678.81;4887946;29;20389;-73
2022/07/23 01:23:15;;;;;;;4.88;2.58;;;;;;;12.78;90.82;100685.41;4903558;29;20032;-73
2022/07/23 01:25:49;;;;;;;7.18;2.90;;;;;;;12.72;91.42;100690.06;4910795;29;20649;-73
2022/07/23 01:28:14;;;;;;;11.40;3.13;;;;;;;12.74;91.38;100682.38;4914445;29;20028;-72
2022/07/23 01:30:40;;;;;;;3.53;2.38;;;;;;;12.71;91.72;100670.00;4891527;29;20035;-73
2022/07/23 01:33:06;;;;;;;9.95;2.95;;;;;;;12.73;91.72;100673.31;4885687;29;20032;-72
2022/07/23 01:35:31;;;;;;;10.40;3.00;;;;;;;12.74;92.10;100680.44;4895457;29;20036;-71
2022/07/23 01:37:56;;;;;;;13.38;3.15;;;;;;;12.74;91.04;100680.44;4885586;29;20384;-72
2022/07/23 01:40:22;;;;;;;6.10;2.40;;;;;;;12.73;91.29;100675.22;4895705;29;20051;-72
2022/07/23 01:42:47;;;;;;;7.90;2.45;;;;;;;12.72;91.65;100681.81;4872812;29;20372;-72
2022/07/23 01:45:13;;;;;;;7.28;2.40;;;;;;;12.67;91.52;100679.88;4910095;29;20083;-74
2022/07/23 01:47:38;;;;;;;10.05;3.08;;;;;;;12.65;91.59;100668.38;4893480;29;20069;-72
2022/07/23 01:50:04;;;;;;;6.93;3.35;;;;;;;12.64;92.00;100674.94;4889527;29;20025;-72
2022/07/23 01:52:30;;;;;;;5.65;2.80;;;;;;;12.61;91.79;100674.69;4878511;29;20044;-71
2022/07/23 01:54:55;;;;;;;14.05;3.28;;;;;;;12.56;92.35;100672.75;4890688;29;20045;-72
2022/07/23 01:57:21;;;;;;;7.97;2.58;;;;;;;12.52;92.30;100682.63;4867933;29;20036;-73
2022/07/23 01:59:46;;;;;;;9.02;3.63;;;;;;;12.46;92.60;100680.97;4896349;29;20476;-74
2022/07/23 02:02:11;;;;;;;7.20;3.13;;;;;;;12.39;92.20;100679.31;4892588;29;20513;-73
2022/07/23 02:04:37;;;;;;;5.22;2.72;;;;;;;12.36;92.39;100674.38;4907322;29;20028;-73
2022/07/23 02:07:03;;;;;;;4.88;2.58;;;;;;;12.32;92.71;100673.25;4894965;29;20055;-72
2022/07/23 02:09:29;;;;;;;9.13;2.80;;;;;;;12.28;92.71;100671.34;4915058;29;20083;-73
2022/07/23 02:11:54;;;;;;;5.10;2.30;;;;;;;12.24;93.29;100673.81;4881332;29;20052;-73
2022/07/23 02:14:20;;;;;;;9.23;3.05;;;;;;;12.18;92.49;100666.69;4906573;29;20036;-72
2022/07/23 02:16:45;;;;;;;10.80;2.38;;;;;;;12.16;93.07;100669.69;4880861;29;20040;-72
2022/07/23 02:19:11;;;;;;;3.17;2.08;;;;;;;12.15;92.77;100675.41;4899646;29;20372;-75
2022/07/23 02:21:36;;;;;;;4.00;2.20;;;;;;;12.03;92.34;100665.53;4895194;29;20043;-71
2022/07/23 02:24:01;;;;;;;3.30;2.10;;;;;;;12.04;93.16;100671.84;4900378;29;20031;-72
2022/07/23 02:26:27;;;;;;;4.22;2.17;;;;;;;12.00;92.99;100677.03;4901622;29;20052;-74
2022/07/23 02:28:55;;;;;;;4.70;1.90;;;;;;;11.99;93.10;100682.81;4867269;29;20068;-73
2022/07/23 02:31:20;;;;;;;5.35;2.25;;;;;;;11.98;92.55;100681.94;4902899;29;20108;-72
2022/07/23 02:33:46;;;;;;;7.05;2.38;;;;;;;12.04;93.02;100683.63;4910092;29;20032;-73
2022/07/23 02:36:11;;;;;;;4.70;2.30;;;;;;;12.06;92.64;100686.09;4886865;29;20036;-73
2022/07/23 02:38:37;;;;;;;6.50;2.75;;;;;;;12.09;92.42;100692.94;4866775;29;20115;-73
2022/07/23 02:41:02;;;;;;;11.73;2.75;;;;;;;12.05;92.70;100690.75;4896432;29;21956;-73
2022/07/23 02:43:27;;;;;;;7.85;2.78;;;;;;;12.03;92.63;100698.44;4894439;29;20036;-73
2022/07/23 02:45:53;;;;;;;12.50;2.45;;;;;;;12.03;92.82;100692.94;4915687;29;20061;-73
2022/07/23 02:48:18;;;;;;;6.97;2.92;;;;;;;12.04;92.78;100685.53;4894957;29;20092;-73
2022/07/23 02:50:44;;;;;;;7.53;3.05;;;;;;;12.02;92.64;100691.28;4870220;29;20127;-74
2022/07/23 02:53:09;;;;;;;7.20;2.47;;;;;;;12.05;92.51;100695.41;4906106;29;20091;-72
2022/07/23 02:55:35;;;;;;;10.75;2.83;;;;;;;12.01;92.16;100700.59;4899330;29;20039;-72
2022/07/23 02:58:00;;;;;;;3.85;2.63;;;;;;;12.00;92.26;100701.72;4902379;29;20126;-74
2022/07/23 03:00:26;;;;;;;3.97;2.20;;;;;;;11.95;92.40;100695.38;4864290;29;20088;-74
2022/07/23 03:02:51;;;;;;;11.45;2.85;;;;;;;11.91;92.27;100694.25;4883636;29;20040;-71
2022/07/23 03:05:16;;;;;;;7.70;2.85;;;;;;;11.87;92.48;100692.03;4882637;29;20111;-72
2022/07/23 03:07:42;;;;;;;8.43;2.38;;;;;;;11.84;92.75;100689.00;4910250;29;20495;-72
2022/07/23 03:10:08;;;;;;;6.93;2.92;;;;;;;11.82;92.37;100697.47;4902250;29;20043;-73
2022/07/23 03:12:34;;;;;;;8.60;3.17;;;;;;;11.78;92.43;100690.06;4904189;29;20092;-73
2022/07/23 03:15:00;;;;;;;4.35;2.50;;;;;;;11.77;92.36;100691.16;4916016;29;20337;-73
2022/07/23 03:17:25;;;;;;;8.18;2.55;;;;;;;11.72;92.34;100696.63;4897558;29;20380;-73
2022/07/23 03:19:51;;;;;;;5.70;2.58;;;;;;;11.71;92.34;100701.28;4885172;29;20025;-72
2022/07/23 03:22:16;;;;;;;4.28;2.20;;;;;;;11.69;92.58;100704.28;4912861;29;20040;-73
2022/07/23 03:24:53;;;;;;;6.82;2.50;;;;;;;11.67;92.33;100694.69;4878111;29;20036;-73
2022/07/23 03:27:23;;;;;;;10.38;2.55;;;;;;;11.64;92.40;100701.53;4895838;29;20039;-73
2022/07/23 03:29:50;;;;;;;5.18;2.35;;;;;;;11.62;92.52;100695.50;4890159;29;20032;-74
2022/07/23 03:32:15;;;;;;;3.55;2.47;;;;;;;11.62;92.42;100698.25;4911076;29;20024;-73
2022/07/23 03:34:41;;;;;;;8.02;2.55;;;;;;;11.61;92.47;100701.22;4865696;29;20032;-73
2022/07/23 03:37:06;;;;;;;7.53;2.13;;;;;;;11.57;92.28;100695.47;4891266;29;20037;-74
2022/07/23 03:39:32;;;;;;;4.18;2.17;;;;;;;11.55;92.23;100703.13;4906706;29;20025;-72
2022/07/23 03:41:57;;;;;;;5.95;2.65;;;;;;;11.53;92.64;100705.28;4910007;29;20032;-73
2022/07/23 03:44:23;;;;;;;3.80;2.55;;;;;;;11.50;92.47;100709.38;4881026;29;20127;-73
2022/07/23 03:46:49;;;;;;;7.47;2.53;;;;;;;11.50;92.64;100700.34;4909035;29;20029;-73
2022/07/23 03:49:15;;;;;;;3.80;2.45;;;;;;;11.50;92.73;100694.88;4902927;29;20036;-73
2022/07/23 03:51:40;;;;;;;4.90;2.50;;;;;;;11.49;92.77;100706.91;4910086;29;20385;-72
2022/07/23 03:54:06;;;;;;;8.95;3.10;;;;;;;11.43;92.74;100688.81;4892081;29;20052;-73
2022/07/23 03:56:31;;;;;;;7.30;2.80;;;;;;;11.41;92.86;100691.00;4905208;29;20031;-73
2022/07/23 03:58:57;;;;;;;4.80;2.42;;;;;;;11.38;92.87;100692.34;4906609;29;20057;-73
2022/07/23 04:01:22;;;;;;;6.10;2.88;;;;;;;11.35;92.95;100692.88;4900249;29;20399;-72
2022/07/23 04:03:48;;;;;;;10.02;3.13;;;;;;;11.35;93.08;100692.88;4911647;29;20032;-72
2022/07/23 04:06:13;;;;;;;6.20;2.70;;;;;;;11.33;93.19;100695.88;4912688;29;20028;-72
2022/07/23 04:08:38;;;;;;;9.00;2.90;;;;;;;11.33;93.21;100690.41;4893872;29;20024;-74
2022/07/23 04:11:04;;;;;;;7.63;3.38;;;;;;;11.30;93.20;100693.69;4890594;29;20543;-72
2022/07/23 04:13:30;;;;;;;5.80;3.05;;;;;;;11.27;93.35;100687.88;4886948;29;20037;-71
2022/07/23 04:15:55;;;;;;;7.82;2.97;;;;;;;11.28;93.61;100695.84;4895824;29;20040;-73
2022/07/23 04:18:23;;;;;;;10.02;2.90;;;;;;;11.27;93.37;100702.41;4898693;29;20052;-73
2022/07/23 04:20:50;;;;;;;10.10;3.15;;;;;;;11.22;93.59;100694.16;4882308;29;20381;-72
2022/07/23 04:23:15;;;;;;;3.05;2.45;;;;;;;11.19;93.73;100689.22;4903910;29;20036;-73
2022/07/23 04:25:41;;;;;;;4.47;2.13;;;;;;;11.19;93.71;100705.63;4888379;29;20087;-72
2022/07/23 04:28:06;;;;;;;6.65;2.20;;;;;;;11.16;93.74;100706.16;4906948;29;20046;-73
2022/07/23 04:30:32;;;;;;;3.00;2.33;;;;;;;11.14;93.70;100700.13;4899912;29;20273;-72
2022/07/23 04:32:57;;;;;;;4.72;2.63;;;;;;;11.16;93.89;100701.50;4879078;29;20035;-71
2022/07/23 04:35:23;;;;;;;11.95;2.58;;;;;;;11.17;93.84;100694.97;4902882;29;20028;-71
2022/07/23 04:37:48;;;;;;;13.57;2.65;;;;;;;11.21;93.92;100710.84;4869301;29;20051;-72
2022/07/23 04:40:13;;;;;;;7.75;2.50;;;;;;;11.23;93.44;100706.78;4900230;29;20020;-74
2022/07/23 04:42:39;;;;;;;4.35;2.72;;;;;;;11.20;93.46;100710.03;4891495;29;20032;-73
2022/07/23 04:45:06;;;;;;;5.72;2.45;;;;;;;11.22;93.48;100702.38;4896108;29;20380;-72
2022/07/23 04:47:32;;;;;;;6.13;2.83;;;;;;;11.19;93.43;100694.69;4910695;29;20048;-72
2022/07/23 04:49:57;;;;;;;13.18;2.67;;;;;;;11.20;93.54;100692.75;4905799;29;20035;-73
2022/07/23 04:52:23;;;;;;;5.90;2.63;;;;;;;11.20;93.40;100690.88;4879823;29;20368;-72
2022/07/23 04:54:49;;;;;;;7.43;2.63;;;;;;;11.23;93.43;100700.44;4905703;29;20083;-72
2022/07/23 04:57:15;;;;;;;11.75;2.83;;;;;;;11.28;93.36;100704.03;4891465;29;20095;-73
2022/07/23 04:59:40;;;;;;;6.22;2.40;;;;;;;11.28;93.36;100693.09;4915715;29;20028;-73
2022/07/23 05:02:06;;;;;;;5.25;2.30;;;;;;;11.23;93.52;100693.09;4882626;29;20115;-72
2022/07/23 05:04:31;;;;;;;8.05;2.63;;;;;;;11.22;93.48;100696.91;4896626;29;20032;-72
2022/07/23 05:06:58;;;;;;;5.18;2.15;;;;;;;11.24;93.65;100708.41;4870449;29;20040;-72
2022/07/23 05:09:24;;;;;;;6.93;3.10;;;;;;;11.27;93.62;100713.38;4896028;29;20060;-74
2022/07/23 05:11:49;;;;;;;4.45;2.63;;;;;;;11.31;93.47;100716.38;4896288;29;20053;-71
2022/07/23 05:14:15;;;;;;;6.95;2.40;;;;;;;11.39;93.26;100715.91;4883204;29;20005;-72
2022/07/23 05:16:40;;;;;;;6.43;2.40;;;;;;;11.46;92.95;100715.66;4916845;29;20031;-72
2022/07/23 05:19:06;;;;;;;4.95;2.85;;;;;;;11.55;92.74;100716.81;4911471;29;20153;-72
2022/07/23 05:21:31;;;;;;;7.05;2.65;;;;;;;11.63;92.41;100721.78;4905475;29;20044;-71
2022/07/23 05:23:57;;;;;;;4.00;2.28;;;;;;;11.73;91.95;100714.72;4898269;29;20032;-72
2022/07/23 05:26:22;;;;;;;6.22;3.15;;;;;;;11.90;91.62;100722.72;4907215;29;20067;-72
2022/07/23 05:28:48;;;;;;;8.18;3.28;;;;;;;12.03;91.08;100725.84;4905714;29;20040;-72
2022/07/23 05:31:13;;;;;;;5.35;3.03;;;;;;;12.14;90.21;100725.88;4879723;29;20043;-72
2022/07/23 05:33:39;;;;;;;10.63;2.45;;;;;;;12.21;90.12;100726.44;4888878;29;20035;-72
2022/07/23 05:36:05;;;;;;;4.25;2.40;;;;;;;12.32;89.75;100719.88;4897373;29;20040;-72
2022/07/23 05:38:32;;;;;;;4.38;2.47;;;;;;;12.43;88.97;100728.16;4878355;29;20108;-73
2022/07/23 05:40:58;;;;;;;5.53;3.05;;;;;;;12.50;88.97;100728.69;4896340;29;20028;-73
2022/07/23 05:43:23;;;;;;;4.88;2.45;;;;;;;12.60;88.81;100734.22;4916319;29;20073;-73
2022/07/23 05:45:49;;;;;;;7.45;2.50;;;;;;;12.68;88.55;100730.91;4887904;29;20512;-72
2022/07/23 05:48:14;;;;;;;4.90;2.17;;;;;;;12.77;88.39;100722.16;4881408;29;20032;-73
2022/07/23 05:50:39;;;;;;;5.07;2.53;;;;;;;12.91;87.97;100734.25;4888488;29;20036;-72
2022/07/23 05:53:05;;;;;;;3.92;2.47;;;;;;;12.99;87.39;100741.91;4910862;29;20443;-70
2022/07/23 05:55:31;;;;;;;4.75;2.20;;;;;;;13.01;87.25;100731.50;4888834;29;20085;-71
2022/07/23 05:57:57;;;;;;;6.30;2.45;;;;;;;13.08;86.92;100729.31;4885453;29;20032;-72
2022/07/23 06:00:24;;;;;;;6.53;2.20;;;;;;;13.15;86.69;100722.69;4910756;29;20725;-73
2022/07/23 06:02:49;;;;;;;4.13;2.53;;;;;;;13.25;86.52;100733.69;4886604;29;20024;-72
2022/07/23 06:05:15;;;;;;;4.97;2.47;;;;;;;13.34;85.83;100731.19;4910311;29;20040;-72
2022/07/23 06:07:41;;;;;;;8.85;2.88;;;;;;;13.42;85.71;100723.25;4886176;29;20032;-74
2022/07/23 06:10:07;;;;;;;5.78;2.60;;;;;;;13.53;85.28;100718.53;4898614;29;20036;-72
2022/07/23 06:12:33;;;;;;;5.70;2.22;;;;;;;13.70;84.67;100722.91;4910512;29;20077;-73
2022/07/23 06:14:58;;;;;;;3.42;2.08;;;;;;;13.88;84.28;100721.47;4899941;29;20743;-73
2022/07/23 06:17:24;;;;;;;3.13;1.95;;;;;;;14.13;84.07;100721.34;4915887;29;20063;-72
2022/07/23 06:19:50;;;;;;;4.60;1.85;;;;;;;14.35;83.11;100717.38;4899583;29;20100;-72
2022/07/23 06:22:15;;;;;;;4.88;2.15;;;;;;;14.47;81.99;100719.75;4909425;29;20060;-73
2022/07/23 06:24:41;;;;;;;3.45;2.00;;;;;;;14.57;81.13;100724.38;4890884;29;20087;-73
2022/07/23 06:27:06;;;;;;;5.90;2.47;;;;;;;14.58;81.08;100728.78;4890340;29;20047;-70
2022/07/23 06:29:32;;;;;;;4.30;2.30;;;;;;;14.62;81.48;100727.97;4903849;29;20124;-71
2022/07/23 06:31:57;;;;;;;5.85;2.42;;;;;;;14.72;81.86;100740.00;4902031;29;20032;-71
2022/07/23 06:34:22;;;;;;;9.32;2.72;;;;;;;14.68;81.54;100741.69;4895504;29;20039;-71
2022/07/23 06:36:48;;;;;;;5.60;2.55;;;;;;;14.71;81.94;100741.94;4888936;29;20049;-72
2022/07/23 06:39:13;;;;;;;5.90;2.33;;;;;;;14.73;81.44;100742.47;4884904;29;20471;-72
2022/07/23 06:41:39;;;;;;;7.90;2.50;;;;;;;14.79;81.43;100738.59;4907510;29;20444;-72
2022/07/23 06:44:04;;;;;;;3.75;2.15;;;;;;;14.79;81.52;100738.59;4878149;29;20057;-75
2022/07/23 06:46:30;;;;;;;8.10;2.70;;;;;;;14.74;81.41;100744.13;4891024;29;20416;-74
2022/07/23 06:48:55;;;;;;;3.25;2.15;;;;;;;14.66;81.44;100740.06;4888514;29;20037;-72
2022/07/23 06:51:21;;;;;;;4.38;2.03;;;;;;;14.60;82.18;100745.84;4889506;29;20040;-74
2022/07/23 06:53:46;;;;;;;3.45;2.20;;;;;;;14.57;82.51;100751.91;4902065;29;20120;-73
2022/07/23 06:56:12;;;;;;;2.70;1.58;;;;;;;14.56;82.76;100750.25;4892967;29;20041;-75
2022/07/23 06:58:38;;;;;;;8.15;2.20;;;;;;;14.50;82.17;100749.50;4880439;29;20037;-74
2022/07/23 07:01:03;;;;;;;6.18;2.35;;;;;;;14.54;82.01;100753.28;4896866;29;20031;-74
2022/07/23 07:03:28;;;;;;;6.00;1.65;;;;;;;14.60;82.17;100751.34;4874956;29;20037;-74
2022/07/23 07:05:54;;;;;;;5.63;2.22;;;;;;;14.69;82.45;100743.31;4883630;29;20033;-74
2022/07/23 07:08:21;;;;;;;6.05;2.80;;;;;;;14.82;82.14;100748.19;4879797;29;20164;-75
2022/07/23 07:10:46;;;;;;;7.90;2.00;;;;;;;14.94;82.19;100745.09;4885023;29;20088;-73
2022/07/23 07:13:12;;;;;;;16.55;2.08;;;;;;;15.08;81.77;100740.53;4890885;29;20132;-74
2022/07/23 07:15:38;;;;;;;9.90;2.60;;;;;;;15.19;81.02;100741.28;4859032;29;20113;-74
2022/07/23 07:18:03;;;;;;;7.10;2.22;;;;;;;15.24;81.42;100743.16;4896029;29;20060;-73
2022/07/23 07:20:28;;;;;;;8.25;2.10;;;;;;;15.33;81.56;100752.44;4878576;29;20025;-72
2022/07/23 07:22:54;;;;;;;4.50;2.35;;;;;;;15.41;81.02;100748.25;4869787;29;20062;-73
2022/07/23 07:25:19;;;;;;;5.82;2.80;;;;;;;15.50;80.67;100763.84;4870702;29;20043;-73
2022/07/23 07:27:45;;;;;;;4.22;2.45;;;;;;;15.52;80.91;100767.16;4875960;29;20028;-71
2022/07/23 07:30:12;;;;;;;3.42;1.90;;;;;;;15.61;80.22;100764.59;4889592;29;20043;-72
2022/07/23 07:32:37;;;;;;;8.63;2.20;;;;;;;15.63;80.76;100767.03;4886285;29;20031;-73
2022/07/23 07:35:04;;;;;;;9.73;2.35;;;;;;;15.74;80.57;100763.06;4879289;29;20056;-77
2022/07/23 07:37:29;;;;;;;2.63;2.08;;;;;;;15.84;80.98;100763.00;4890477;29;20028;-78
2022/07/23 07:39:55;;;;;;;6.40;2.17;;;;;;;15.96;80.15;100764.50;4857786;29;20364;-72
2022/07/23 07:42:20;;;;;;;5.18;2.03;;;;;;;16.07;79.93;100754.97;4876766;29;20111;-73
2022/07/23 07:44:46;;;;;;;4.35;1.83;;;;;;;16.23;79.85;100763.88;4886343;29;20033;-72
2022/07/23 07:47:11;;;;;;;4.05;2.10;;;;;;;16.38;79.05;100751.81;4878486;29;20033;-72
2022/07/23 07:49:37;;;;;;;3.85;1.63;;;;;;;16.49;78.77;100747.78;4878770;29;20025;-72
2022/07/23 07:52:03;;;;;;;1.40;1.30;;;;;;;16.67;78.00;100754.44;4885702;29;20020;-72
2022/07/23 07:54:28;;;;;;;1.48;1.35;;;;;;;16.87;77.52;100753.34;4898371;29;20048;-72
2022/07/23 07:56:54;;;;;;;5.18;1.80;;;;;;;17.08;76.45;100753.84;4910463;29;20038;-72
2022/07/23 07:59:19;;;;;;;10.45;1.75;;;;;;;17.27;75.95;100753.78;4907895;29;20024;-72
2022/07/23 08:01:52;;;;;;;4.03;1.95;;;;;;;17.38;74.92;100750.84;4895264;29;20036;-73
2022/07/23 08:04:18;;;;;;;2.35;1.30;;;;;;;17.62;74.01;100757.03;4871777;29;20096;-74
2022/07/23 08:06:43;;;;;;;2.25;1.30;;;;;;;17.78;73.51;100762.25;4909491;29;20028;-72
2022/07/23 08:09:09;;;;;;;3.58;1.50;;;;;;;17.94;73.13;100755.31;4892270;29;20044;-72
2022/07/23 08:11:34;;;;;;;2.50;1.60;;;;;;;17.99;71.01;100770.16;4896305;29;20036;-72
2022/07/23 08:14:00;;;;;;;1.30;1.00;;;;;;;18.24;71.78;100755.81;4904788;29;20024;-74
2022/07/23 08:16:29;;;;;;;1.42;0.80;;;;;;;18.63;71.08;100762.69;4883859;29;20689;-72
2022/07/23 08:18:57;;;;;;;3.97;1.15;;;;;;;18.89;68.82;100756.56;4908584;29;20248;-73
2022/07/23 08:21:22;;;;;;;3.65;1.10;;;;;;;18.96;68.74;100751.41;4878129;29;20107;-72
2022/07/23 08:23:51;;;;;;;2.08;0.90;;;;;;;19.15;68.49;100755.94;4898265;29;20480;-72
2022/07/23 08:26:16;;;;;;;1.98;1.10;;;;;;;19.17;67.62;100757.28;4890845;29;20029;-73
2022/07/23 08:28:42;;;;;;;3.17;0.82;;;;;;;19.48;67.49;100772.31;4912534;29;20024;-72
2022/07/23 08:31:11;;;;;;;2.47;1.13;;;;;;;19.54;65.06;100771.84;4911943;29;20038;-72
2022/07/23 08:33:37;;;;;;;1.85;1.02;;;;;;;19.63;65.25;100769.09;4896237;29;20047;-72
2022/07/23 08:36:03;;;;;;;0.90;0.63;;;;;;;19.62;64.95;100767.47;4898409;29;20028;-73
2022/07/23 08:38:29;;;;;;;7.70;0.80;;;;;;;19.68;63.66;100766.22;4901110;29;20032;-72
2022/07/23 08:40:57;;;;;;;1.15;0.60;;;;;;;19.66;62.78;100762.09;4873859;29;20416;-72
2022/07/23 08:43:44;;;;;;;2.88;0.88;;;;;;;19.75;62.46;100773.25;4909352;29;20025;-72
2022/07/23 08:46:10;;;;;;;0.55;0.45;;;;;;;19.73;61.92;100770.78;4898041;29;20054;-72
2022/07/23 08:48:39;;;;;;;1.27;0.90;;;;;;;19.76;61.92;100759.06;4899961;29;20036;-73
2022/07/23 08:51:05;;;;;;;0.88;0.70;;;;;;;19.86;61.25;100760.75;4891478;29;20047;-72
2022/07/23 08:53:33;;;;;;;0.98;0.68;;;;;;;19.95;60.61;100758.81;4900764;29;20520;-73
2022/07/23 08:56:03;;;;;;;2.92;0.80;;;;;;;20.10;60.67;100776.19;4908217;29;20037;-73
2022/07/23 08:58:30;;;;;;;0.70;0.50;;;;;;;20.16;60.24;100769.34;4912174;29;20474;-73
2022/07/23 09:00:56;;;;;;;1.02;0.80;;;;;;;20.20;58.62;100775.88;4890002;29;20392;-72
2022/07/23 09:03:29;;;;;;;1.38;0.63;;;;;;;20.12;59.00;100768.34;4890446;29;20391;-73
2022/07/23 09:05:57;;;;;;;0.60;0.60;;;;;;;20.22;58.39;100768.03;4902214;29;20116;-71
2022/07/23 09:08:35;;;;;;;3.17;0.65;;;;;;;20.36;57.84;100774.28;4877123;29;20151;-73
2022/07/23 09:11:03;;;;;;;2.33;0.75;;;;;;;20.39;56.07;100767.25;4906739;29;20021;-72
2022/07/23 09:13:37;;;;;;;3.25;0.40;;;;;;;20.46;56.74;100761.22;4909901;29;20103;-72
2022/07/23 09:16:16;;;;;;;2.03;0.55;;;;;;;20.61;55.64;100757.97;4896938;29;20067;-72
2022/07/23 09:18:47;;;;;;;0.95;0.43;;;;;;;20.75;55.02;100772.56;4895379;29;20119;-72
2022/07/23 09:21:22;;;;;;;0.80;0.30;;;;;;;20.95;55.25;100753.56;4898576;29;20060;-73
2022/07/23 09:24:05;;;;;;;1.48;0.45;;;;;;;21.20;54.03;100773.31;4897506;29;20107;-71
2022/07/23 09:26:49;;;;;;;1.30;0.47;;;;;;;21.29;54.66;100768.59;4905672;29;20395;-72
2022/07/23 09:29:21;;;;;;;0.65;0.47;;;;;;;21.42;53.71;100764.78;4895628;29;20036;-73
2022/07/23 09:31:54;;;;;;;1.67;0.77;;;;;;;21.56;52.95;100766.56;4905851;29;20074;-75
2022/07/23 09:34:32;;;;;;;0.50;0.50;;;;;;;21.72;53.05;100761.28;4903450;29;20031;-73
2022/07/23 09:37:09;;;;;;;0.47;0.45;;;;;;;21.87;52.98;100751.56;4892816;29;20048;-72
2022/07/23 09:39:35;;;;;;;1.15;0.70;;;;;;;21.96;51.74;100769.00;4916870;29;20021;-73
2022/07/23 09:42:20;;;;;;;0.85;0.60;;;;;;;22.09;51.13;100765.22;4903155;29;20375;-73
2022/07/23 09:44:51;;;;;;;0.47;0.47;;;;;;;22.24;50.44;100765.75;4895603;29;21522;-73
2022/07/23 09:47:17;;;;;;;0.55;0.40;;;;;;;22.49;49.75;100767.59;4894483;29;20024;-73
2022/07/23 09:50:13;;;;;;;1.25;0.60;;;;;;;23.00;48.63;100777.84;4905564;29;20067;-72
2022/07/23 09:52:48;;;;;;;1.17;0.57;;;;;;;23.58;47.11;100774.31;4882496;29;20016;-72
2022/07/23 09:55:14;;;;;;;0.40;0.40;;;;;;;24.77;45.07;100781.78;4893075;29;20079;-73
2022/07/23 09:57:42;;;;;;;1.08;0.57;;;;;;;26.44;40.19;100770.91;4894544;29;20036;-74
2022/07/23 10:00:10;;;;;;;0.70;0.50;;;;;;;27.35;38.29;100771.66;4872893;29;20132;-73
2022/07/23 10:02:36;;;;;;;3.15;0.60;;;;;;;30.43;34.06;100781.56;4894984;29;20021;-73
2022/07/23 10:05:03;;;;;;;1.08;0.60;;;;;;;32.45;30.24;100776.28;4875987;29;20043;-73
2022/07/23 10:07:33;;;;;;;0.55;0.47;;;;;;;33.88;27.92;100776.75;4891639;29;20400;-72
2022/07/23 10:10:00;;;;;;;0.52;0.43;;;;;;;33.81;27.98;100776.81;4897303;29;20067;-73
2022/07/23 10:12:33;;;;;;;1.02;0.60;;;;;;;32.45;28.96;100773.47;4876404;29;20032;-74
2022/07/23 10:15:00;;;;;;;2.17;0.63;;;;;;;31.15;30.84;100770.59;4872118;29;20138;-73
2022/07/23 10:17:28;;;;;;;1.75;0.60;;;;;;;30.74;32.66;100753.09;4869065;29;20059;-74
2022/07/23 10:19:54;;;;;;;0.60;0.50;;;;;;;30.64;33.41;100751.84;4897663;29;20029;-73
2022/07/23 10:22:23;;;;;;;2.25;0.63;;;;;;;30.38;32.53;100767.00;4888561;29;20436;-72
2022/07/23 10:25:11;;;;;;;1.70;0.70;;;;;;;30.72;31.94;100770.41;4888559;29;20031;-71
2022/07/23 10:27:43;;;;;;;1.27;0.40;;;;;;;32.36;29.93;100767.44;4888635;29;20067;-71
2022/07/23 10:30:26;;;;;;;3.13;0.50;;;;;;;35.32;26.87;100773.53;4887749;29;20052;-73
2022/07/23 10:33:10;;;;;;;2.20;0.47;;;;;;;38.82;21.89;100776.03;4895720;29;20029;-72
2022/07/23 10:35:59;;;;;;;1.73;0.55;;;;;;;37.57;21.98;100774.47;4872338;29;20025;-72
2022/07/23 10:38:32;;;;;;;1.10;0.40;;;;;;;36.41;23.42;100776.19;4894534;29;20020;-72
2022/07/23 10:41:04;;;;;;;1.67;0.70;;;;;;;36.95;23.57;100775.88;4884769;29;20626;-72
2022/07/23 10:43:30;;;;;;;1.58;0.60;;;;;;;37.70;21.33;100775.38;4899014;29;20032;-72
2022/07/23 10:46:16;;;;;;;1.10;0.70;;;;;;;37.04;22.15;100789.53;4876629;29;20033;-72
2022/07/23 10:48:42;;;;;;;0.73;0.30;;;;;;;37.46;21.96;100767.00;4878659;29;20480;-72
2022/07/23 10:51:13;;;;;;;0.73;0.43;;;;;;;38.46;20.55;100759.91;4869780;29;20036;-73
2022/07/23 10:53:51;;;;;;;0.80;0.40;;;;;;;39.31;19.79;100759.88;4895791;29;20048;-72
2022/07/23 10:56:54;;;;;;;0.65;0.40;;;;;;;38.04;21.51;100752.09;4906775;29;20141;-73
2022/07/23 10:59:20;;;;;;;1.35;0.50;;;;;;;35.85;23.57;100751.16;4891807;29;20052;-71
2022/07/23 11:01:45;;;;;;;1.30;0.77;;;;;;;34.05;25.92;100749.47;4888425;29;20038;-73
2022/07/23 11:04:13;;;;;;;4.35;0.60;;;;;;;32.72;27.86;100739.00;4888934;29;20108;-73
2022/07/23 11:06:50;;;;;;;0.70;0.50;;;;;;;31.66;29.19;100748.91;4913504;29;20052;-72
2022/07/23 11:09:43;;;;;;;1.05;0.57;;;;;;;31.33;29.73;100736.72;4903889;29;20047;-71
2022/07/23 11:12:24;;;;;;;0.50;0.40;;;;;;;31.70;29.29;100743.22;4889139;29;20092;-73
2022/07/23 11:15:11;;;;;;;0.60;0.45;;;;;;;31.39;29.84;100728.66;4899369;29;20036;-72
2022/07/23 11:18:00;;;;;;;1.95;0.75;;;;;;;30.66;31.41;100743.78;4885644;29;20775;-72
2022/07/23 11:20:26;;;;;;;1.00;0.65;;;;;;;29.53;33.33;100740.56;4906492;29;20028;-71
2022/07/23 11:22:55;;;;;;;0.80;0.50;;;;;;;28.44;35.81;100740.47;4881496;29;20036;-72
2022/07/23 11:25:21;;;;;;;0.85;0.40;;;;;;;27.86;37.12;100748.03;4911884;29;20032;-73